Time;durP1;ratioP1;P1;durP2;ratioP2;P2;SDS_P1;SDS_P2;PMS_P1;PMS_P2;Temp;Humidity;BMP_temperature;BMP_pressure;BME280_temperature;BME280_humidity;BME280_pressure;Samples;Min_cycle;Max_cycle;Signal;HPM_P1;HPM_P2
2021/03/21 00:05:01;;;;;;;13.13;7.47;;;;;;;-3.73;61.11;99726.05;510130;1102;115627;-65
2021/03/21 00:15:06;;;;;;;26.13;12.33;;;;;;;-3.87;61.49;99702.98;510231;1102;114564;-66
2021/03/21 00:25:16;;;;;;;8.40;6.07;;;;;;;-4.14;62.95;99686.83;510905;1101;115159;-66
2021/03/21 00:35:20;;;;;;;20.10;8.60;;;;;;;-4.23;62.47;99670.59;510308;1101;114088;-70
2021/03/21 00:45:25;;;;;;;13.17;8.20;;;;;;;-4.25;63.14;99653.53;510393;1100;114566;-66
2021/03/21 00:55:28;;;;;;;13.10;7.95;;;;;;;-4.25;63.73;99643.27;510534;1102;114580;-65
2021/03/21 01:05:34;;;;;;;14.93;8.20;;;;;;;-4.28;64.44;99603.09;509959;1100;114934;-67
2021/03/21 01:15:37;;;;;;;;;;;;;;;-4.21;64.36;99573.16;510285;1102;114338;-66
2021/03/21 01:25:40;;;;;;;13.10;8.05;;;;;;;-4.05;65.52;99553.42;510434;1102;101257;-66
2021/03/21 01:35:43;;;;;;;10.90;7.60;;;;;;;-3.92;65.11;99520.87;510764;1100;114167;-67
2021/03/21 01:45:48;;;;;;;12.83;7.63;;;;;;;-3.91;65.64;99499.48;510646;1101;114285;-66
2021/03/21 01:55:52;;;;;;;11.17;7.10;;;;;;;-3.81;64.60;99487.44;511296;1102;114112;-68
2021/03/21 02:06:02;;;;;;;11.97;6.50;;;;;;;-3.68;65.21;99468.52;510886;1102;114207;-67
2021/03/21 02:16:09;;;;;;;9.47;4.83;;;;;;;-3.55;64.86;99429.91;510822;1102;115259;-68
2021/03/21 02:26:32;;;;;;;11.40;7.53;;;;;;;-3.40;64.55;99418.66;510857;1100;113925;-66
2021/03/21 02:36:42;;;;;;;7.57;5.23;;;;;;;-3.36;64.46;99404.91;510679;1100;114195;-67
2021/03/21 02:46:51;;;;;;;12.10;5.87;;;;;;;-3.32;64.02;99369.78;510725;1102;114122;-66
2021/03/21 02:56:59;;;;;;;9.50;5.70;;;;;;;-3.33;63.77;99352.68;511011;1102;115339;-65
2021/03/21 03:07:10;;;;;;;8.57;4.83;;;;;;;-3.35;62.72;99324.44;510951;1101;115629;-66
2021/03/21 03:17:24;;;;;;;7.93;4.90;;;;;;;-3.27;62.74;99311.53;510695;1100;114238;-67
2021/03/21 03:27:35;;;;;;;8.23;4.30;;;;;;;-3.26;61.76;99288.39;510965;1102;113907;-66
2021/03/21 03:37:39;;;;;;;9.57;4.50;;;;;;;-3.21;62.12;99267.78;511152;1102;114080;-67
2021/03/21 03:47:56;;;;;;;8.50;5.17;;;;;;;-3.17;62.18;99251.48;511043;1101;114478;-67
2021/03/21 03:58:03;;;;;;;7.63;4.90;;;;;;;-3.15;62.17;99234.33;510828;1100;115419;-67
2021/03/21 04:08:15;;;;;;;8.67;5.03;;;;;;;-3.16;62.06;99224.06;510989;1102;115529;-68
2021/03/21 04:18:27;;;;;;;9.37;6.13;;;;;;;-3.12;62.20;99205.16;511244;1100;113951;-66
2021/03/21 04:28:38;;;;;;;8.75;5.15;;;;;;;-3.05;62.23;99190.54;510970;1102;114575;-66
2021/03/21 04:38:45;;;;;;;9.60;5.97;;;;;;;-3.01;61.95;99174.19;511032;1100;114252;-68
2021/03/21 04:48:51;;;;;;;6.83;4.40;;;;;;;-2.99;62.09;99168.17;511118;1102;114518;-67
2021/03/21 04:58:57;;;;;;;6.87;4.73;;;;;;;-3.01;61.56;99157.05;511210;1102;114156;-66
2021/03/21 05:09:05;;;;;;;9.53;5.73;;;;;;;-2.96;61.39;99147.56;511183;1102;114216;-67
2021/03/21 05:19:23;;;;;;;6.77;4.70;;;;;;;-2.91;61.56;99131.20;510806;1101;114451;-68
2021/03/21 05:29:44;;;;;;;8.40;4.87;;;;;;;-2.93;62.47;99123.55;511137;1102;114738;-67
2021/03/21 05:39:57;;;;;;;10.13;4.97;;;;;;;-2.92;62.66;99099.55;511141;1102;114834;-67
2021/03/21 05:50:37;;;;;;;8.60;4.67;;;;;;;-3.00;64.12;99112.53;511100;1102;115312;-66
2021/03/21 06:01:28;;;;;;;14.13;7.97;;;;;;;-3.02;64.92;99093.70;511114;1102;114646;-68
2021/03/21 06:11:54;;;;;;;14.50;7.87;;;;;;;-3.07;65.81;99086.94;510959;1102;114255;-67
2021/03/21 06:22:23;;;;;;;8.70;5.83;;;;;;;-3.06;66.93;99079.22;511150;1101;114247;-66
2021/03/21 06:32:48;;;;;;;10.03;6.03;;;;;;;-2.97;67.16;99066.22;510781;1102;114243;-67
2021/03/21 06:43:30;;;;;;;8.70;5.45;;;;;;;-2.88;67.98;99052.36;510965;1102;114225;-67
2021/03/21 06:53:42;;;;;;;10.87;7.53;;;;;;;-2.74;68.46;99038.41;511313;1102;114119;-68
2021/03/21 07:04:27;;;;;;;9.65;7.55;;;;;;;-2.63;69.15;99023.63;510932;1102;114191;-66
2021/03/21 07:14:56;;;;;;;12.30;7.80;;;;;;;-2.56;69.13;99009.80;510978;1102;114237;-67
2021/03/21 07:25:31;;;;;;;8.87;7.00;;;;;;;-2.55;69.49;98985.77;510651;1101;114125;-67
2021/03/21 07:35:56;;;;;;;10.70;8.13;;;;;;;-2.45;69.69;98971.00;510947;1100;114560;-67
2021/03/21 07:46:32;;;;;;;8.87;7.63;;;;;;;-2.31;69.88;98959.56;511042;1102;114118;-67
2021/03/21 07:56:42;;;;;;;14.10;7.87;;;;;;;-2.15;70.12;98945.50;511079;1102;114019;-70
2021/03/21 08:06:54;;;;;;;13.77;8.43;;;;;;;-2.03;69.87;98934.08;510921;1102;114942;-66
2021/03/21 08:17:12;;;;;;;13.07;8.93;;;;;;;-1.94;69.71;98921.88;510969;1102;115095;-67
2021/03/21 08:27:23;;;;;;;18.70;9.80;;;;;;;-1.80;69.85;98906.13;511193;1100;114218;-67
2021/03/21 08:37:46;;;;;;;11.30;8.33;;;;;;;-1.61;69.58;98893.63;511161;1100;114145;-67
2021/03/21 08:47:59;;;;;;;13.30;10.23;;;;;;;-1.39;69.07;98885.36;510921;1101;114991;-68
2021/03/21 08:58:22;;;;;;;14.37;10.77;;;;;;;-1.24;69.23;98873.80;510816;1102;115543;-66
2021/03/21 09:08:27;;;;;;;12.83;9.20;;;;;;;-1.23;69.87;98878.89;511137;1102;114780;-68
2021/03/21 09:18:33;;;;;;;14.30;10.47;;;;;;;-1.29;69.81;98879.91;511172;1100;115745;-69
2021/03/21 09:28:39;;;;;;;13.73;10.43;;;;;;;-1.17;70.46;98872.73;511147;1100;115181;-67
2021/03/21 09:38:50;;;;;;;18.50;11.77;;;;;;;-1.05;70.19;98877.54;511008;1100;115521;-69
2021/03/21 09:49:04;;;;;;;15.90;10.93;;;;;;;-0.94;71.06;98864.37;502033;1102;10001042;-68
2021/03/21 09:59:19;;;;;;;17.10;10.87;;;;;;;-0.76;70.44;98856.97;510526;1100;115519;-68
2021/03/21 10:09:28;;;;;;;15.57;11.77;;;;;;;-0.19;71.23;98838.91;510306;1102;115494;-68
2021/03/21 10:19:56;;;;;;;22.43;13.40;;;;;;;0.21;70.48;98827.29;510361;1100;115181;-67
2021/03/21 10:30:23;;;;;;;15.37;11.83;;;;;;;0.39;71.02;98830.13;510246;1101;115124;-68
2021/03/21 10:40:42;;;;;;;16.55;11.65;;;;;;;0.45;69.99;98827.34;510250;1101;114889;-69
2021/03/21 10:50:57;;;;;;;17.87;11.90;;;;;;;0.43;70.92;98811.06;510132;1101;114559;-67
2021/03/21 11:01:24;;;;;;;14.67;10.83;;;;;;;0.20;69.95;98804.09;510402;1102;115061;-66
2021/03/21 11:11:35;;;;;;;18.20;13.87;;;;;;;0.06;70.86;98807.98;510023;1102;115038;-67
2021/03/21 11:21:41;;;;;;;14.00;11.93;;;;;;;0.24;71.15;98798.77;510427;1102;114486;-66
2021/03/21 11:31:48;;;;;;;16.13;11.80;;;;;;;0.40;71.43;98785.31;510379;1102;115909;-69
2021/03/21 11:41:51;;;;;;;16.93;12.95;;;;;;;0.52;71.89;98778.88;510557;1102;114372;-66
2021/03/21 11:52:02;;;;;;;17.50;14.70;;;;;;;0.48;71.29;98761.82;510260;1102;115119;-70
2021/03/21 12:02:24;;;;;;;17.80;13.37;;;;;;;0.61;71.99;98757.89;510691;1101;114173;-69
2021/03/21 12:12:36;;;;;;;18.00;13.00;;;;;;;0.60;71.63;98742.43;512133;1102;114428;-70
2021/03/21 12:22:40;;;;;;;20.63;15.87;;;;;;;0.46;72.67;98741.20;511907;1102;114694;-64
2021/03/21 12:32:46;;;;;;;16.87;13.73;;;;;;;0.54;72.21;98722.83;511267;1102;114972;-65
2021/03/21 12:42:53;;;;;;;23.10;16.13;;;;;;;0.43;72.31;98712.91;511752;1102;115011;-64
2021/03/21 12:52:56;;;;;;;19.00;15.27;;;;;;;0.39;72.73;98714.75;511760;1102;114751;-64
2021/03/21 13:03:03;;;;;;;17.60;14.53;;;;;;;0.41;72.43;98705.20;511493;1100;114210;-64
2021/03/21 13:13:07;;;;;;;19.87;17.05;;;;;;;0.51;73.07;98705.70;510711;1101;114262;-64
2021/03/21 13:23:11;;;;;;;19.97;14.33;;;;;;;0.49;73.92;98699.75;510699;1101;114217;-63
2021/03/21 13:33:16;;;;;;;17.50;15.23;;;;;;;0.52;73.62;98685.88;510811;1102;114781;-63
2021/03/21 13:43:22;;;;;;;25.05;17.90;;;;;;;0.62;74.49;98683.78;510339;1101;115309;-64
2021/03/21 13:53:30;;;;;;;18.90;14.93;;;;;;;0.68;74.09;98670.65;510464;1101;115567;-64
2021/03/21 14:03:34;;;;;;;20.63;15.23;;;;;;;0.62;74.53;98668.28;510360;1102;115098;-62
2021/03/21 14:13:38;;;;;;;20.30;15.60;;;;;;;0.47;75.39;98655.05;510532;1102;114856;-63
2021/03/21 14:23:42;;;;;;;20.57;16.07;;;;;;;0.38;75.62;98656.25;510116;1102;115048;-64
2021/03/21 14:33:45;;;;;;;19.90;15.60;;;;;;;0.33;75.21;98667.65;510519;1102;115501;-64
2021/03/21 14:43:49;;;;;;;18.60;13.90;;;;;;;0.24;75.31;98651.59;510229;1102;114736;-64
2021/03/21 14:53:52;;;;;;;19.90;14.90;;;;;;;0.31;75.87;98643.63;510526;1102;115949;-63
2021/03/21 15:03:56;;;;;;;20.33;14.43;;;;;;;0.23;76.56;98636.14;510682;1101;115118;-63
2021/03/21 15:13:59;;;;;;;17.70;14.40;;;;;;;0.24;75.79;98630.93;510476;1102;114886;-63
2021/03/21 15:24:04;;;;;;;18.63;15.63;;;;;;;0.12;76.84;98632.24;510537;1102;114138;-63
2021/03/21 15:34:10;;;;;;;19.15;15.90;;;;;;;0.09;77.42;98628.92;510606;1101;114395;-63
2021/03/21 15:44:14;;;;;;;26.30;18.40;;;;;;;0.10;77.80;98623.69;510526;1100;114123;-64
2021/03/21 15:54:17;;;;;;;23.27;15.97;;;;;;;0.02;77.60;98636.05;510840;1100;114125;-64
2021/03/21 16:04:20;;;;;;;18.20;14.97;;;;;;;-0.12;77.94;98621.05;510602;1100;115060;-65
2021/03/21 16:14:23;;;;;;;20.63;15.63;;;;;;;-0.09;78.22;98635.59;510539;1100;115043;-63
2021/03/21 16:24:28;;;;;;;19.37;15.30;;;;;;;-0.10;77.66;98637.32;510605;1100;114523;-64
2021/03/21 16:34:33;;;;;;;21.17;15.00;;;;;;;-0.15;77.53;98650.38;510459;1102;114862;-63
2021/03/21 16:44:36;;;;;;;20.03;14.27;;;;;;;-0.16;78.07;98656.45;510534;1100;114356;-63
2021/03/21 16:54:40;;;;;;;16.07;12.63;;;;;;;-0.15;78.45;98663.28;510419;1102;114325;-63
2021/03/21 17:04:43;;;;;;;19.85;15.35;;;;;;;-0.12;78.87;98669.23;510386;1100;114587;-63
2021/03/21 17:14:46;;;;;;;18.87;14.17;;;;;;;-0.09;78.16;98671.72;510235;1102;114677;-63
2021/03/21 17:24:52;;;;;;;40.80;26.87;;;;;;;-0.07;78.70;98687.99;510425;1100;115553;-59
2021/03/21 17:35:04;;;;;;;22.90;15.95;;;;;;;-0.01;78.66;98701.52;510271;1102;114279;-60
2021/03/21 17:45:11;;;;;;;25.63;19.23;;;;;;;0.09;79.07;98704.61;516461;1100;114673;-68
2021/03/21 17:55:15;;;;;;;21.55;17.35;;;;;;;0.08;78.11;98712.43;510477;1102;114057;-71
2021/03/21 18:05:20;;;;;;;21.13;15.73;;;;;;;0.12;78.40;98721.74;510606;1101;114468;-65
2021/03/21 18:15:26;;;;;;;18.03;13.10;;;;;;;0.08;79.07;98733.09;510887;1102;114733;-63
2021/03/21 18:25:30;;;;;;;16.73;13.63;;;;;;;0.07;79.07;98742.55;510692;1100;114638;-66
2021/03/21 18:35:34;;;;;;;21.00;15.03;;;;;;;0.07;79.62;98754.63;510760;1102;114539;-65
2021/03/21 18:45:38;;;;;;;17.40;13.97;;;;;;;0.07;79.31;98772.70;510648;1099;114279;-65
2021/03/21 18:55:41;;;;;;;22.00;15.17;;;;;;;0.14;80.67;98781.91;510175;1100;115176;-64
2021/03/21 19:05:45;;;;;;;29.27;19.10;;;;;;;0.22;79.92;98789.38;510770;1102;114571;-65
2021/03/21 19:15:49;;;;;;;30.65;19.00;;;;;;;0.29;80.23;98808.95;511022;1102;114797;-65
2021/03/21 19:25:52;;;;;;;24.13;18.00;;;;;;;0.36;80.39;98832.82;510655;1101;115126;-64
2021/03/21 19:35:56;;;;;;;27.20;15.57;;;;;;;0.38;80.70;98839.62;510562;1101;114668;-64
2021/03/21 19:46:00;;;;;;;17.20;11.97;;;;;;;0.33;80.88;98864.75;510999;1102;114606;-64
2021/03/21 19:56:05;;;;;;;13.65;9.60;;;;;;;0.24;79.41;98865.91;510275;1102;114783;-64
2021/03/21 20:06:09;;;;;;;16.60;7.90;;;;;;;0.22;79.97;98879.76;510302;1100;114533;-64
2021/03/21 20:16:13;;;;;;;12.20;8.00;;;;;;;0.15;79.04;98881.70;510597;1101;114890;-65
2021/03/21 20:26:16;;;;;;;8.00;5.00;;;;;;;0.04;79.23;98892.39;511430;1100;114984;-64
2021/03/21 20:36:20;;;;;;;9.27;6.07;;;;;;;-0.17;79.70;98906.83;511118;1102;114936;-63
2021/03/21 20:46:23;;;;;;;9.13;6.27;;;;;;;-0.48;79.50;98924.05;510624;1100;115664;-64
2021/03/21 20:56:27;;;;;;;10.60;5.95;;;;;;;-0.82;79.21;98925.02;510521;1102;115528;-66
2021/03/21 21:06:30;;;;;;;11.57;6.10;;;;;;;-1.08;78.71;98936.07;510581;1102;114564;-64
2021/03/21 21:16:35;;;;;;;8.73;5.43;;;;;;;-1.25;78.70;98947.66;510809;1100;114921;-64
2021/03/21 21:26:38;;;;;;;7.37;3.30;;;;;;;-1.43;79.67;98954.13;510945;1102;113905;-64
2021/03/21 21:36:45;;;;;;;7.53;4.03;;;;;;;-1.59;79.96;98953.65;510741;1102;114392;-63
2021/03/21 21:46:49;;;;;;;9.97;4.53;;;;;;;-1.76;79.66;98966.93;510760;1102;113963;-64
2021/03/21 21:56:52;;;;;;;7.90;4.47;;;;;;;-1.90;80.33;98967.27;510579;1100;114303;-63
2021/03/21 22:06:55;;;;;;;8.87;5.10;;;;;;;-2.05;79.93;98982.16;510476;1102;114062;-64
2021/03/21 22:16:58;;;;;;;11.53;5.83;;;;;;;-2.22;80.84;98979.95;510576;1100;114564;-65
2021/03/21 22:27:03;;;;;;;12.87;6.53;;;;;;;-2.30;81.15;99000.70;510702;1102;115225;-63
2021/03/21 22:37:06;;;;;;;8.03;5.33;;;;;;;-2.40;81.03;98999.19;515350;1102;114477;-69
2021/03/21 22:47:10;;;;;;;9.17;5.10;;;;;;;-2.49;81.19;99015.66;511195;1102;115066;-69
2021/03/21 22:57:13;;;;;;;9.30;4.73;;;;;;;-2.55;81.77;99038.91;511113;1100;114192;-70
2021/03/21 23:07:16;;;;;;;9.60;4.83;;;;;;;-2.59;81.63;99034.70;510991;1102;114707;-68
2021/03/21 23:17:19;;;;;;;14.70;5.40;;;;;;;-2.71;81.77;99038.38;510648;1102;114404;-64
2021/03/21 23:27:23;;;;;;;11.87;6.30;;;;;;;-2.74;81.93;99049.55;510249;1102;114621;-66
2021/03/21 23:37:27;;;;;;;10.97;5.30;;;;;;;-2.80;81.66;99051.39;511976;1102;114106;-65
2021/03/21 23:47:30;;;;;;;11.17;4.40;;;;;;;-2.86;82.27;99065.19;510951;1102;114639;-70
2021/03/21 23:57:34;;;;;;;10.03;4.57;;;;;;;-2.93;82.26;99086.72;510814;1100;116015;-68
